sensor_id;sensor_type;location;lat;lon;timestamp;temperature;humidity
74488;DHT22;63019;51.080;13.642;2023-04-24T00:00:15;12.00;99.90
74488;DHT22;63019;51.080;13.642;2023-04-24T00:01:17;12.00;99.90
74488;DHT22;63019;51.080;13.642;2023-04-24T00:02:19;12.00;99.90
74488;DHT22;63019;51.080;13.642;2023-04-24T00:03:21;12.10;99.90
74488;DHT22;63019;51.080;13.642;2023-04-24T00:04:23;12.10;99.90
74488;DHT22;63019;51.080;13.642;2023-04-24T00:05:27;12.10;99.90
74488;DHT22;63019;51.080;13.642;2023-04-24T00:06:29;12.00;99.90
74488;DHT22;63019;51.080;13.642;2023-04-24T00:07:34;12.00;99.90
74488;DHT22;63019;51.080;13.642;2023-04-24T00:08:36;12.00;99.90
74488;DHT22;63019;51.080;13.642;2023-04-24T00:09:38;12.00;99.90
74488;DHT22;63019;51.080;13.642;2023-04-24T00:10:41;12.00;99.90
74488;DHT22;63019;51.080;13.642;2023-04-24T00:11:42;12.00;99.90
74488;DHT22;63019;51.080;13.642;2023-04-24T00:12:44;12.00;99.90
74488;DHT22;63019;51.080;13.642;2023-04-24T00:13:46;12.00;99.90
74488;DHT22;63019;51.080;13.642;2023-04-24T00:14:48;12.00;99.90
74488;DHT22;63019;51.080;13.642;2023-04-24T00:15:50;12.00;99.90
74488;DHT22;63019;51.080;13.642;2023-04-24T00:16:51;12.10;99.90
74488;DHT22;63019;51.080;13.642;2023-04-24T00:17:53;12.10;99.90
74488;DHT22;63019;51.080;13.642;2023-04-24T00:18:56;12.10;99.90
74488;DHT22;63019;51.080;13.642;2023-04-24T00:19:58;12.10;99.90
74488;DHT22;63019;51.080;13.642;2023-04-24T00:21:00;12.20;99.90
74488;DHT22;63019;51.080;13.642;2023-04-24T00:22:02;12.20;99.90
74488;DHT22;63019;51.080;13.642;2023-04-24T00:23:04;12.20;99.90
74488;DHT22;63019;51.080;13.642;2023-04-24T00:24:06;12.20;99.90
74488;DHT22;63019;51.080;13.642;2023-04-24T00:25:10;12.20;99.90
74488;DHT22;63019;51.080;13.642;2023-04-24T00:26:12;12.20;99.90
74488;DHT22;63019;51.080;13.642;2023-04-24T00:27:14;12.20;99.90
74488;DHT22;63019;51.080;13.642;2023-04-24T00:28:15;12.20;99.90
74488;DHT22;63019;51.080;13.642;2023-04-24T00:29:17;12.20;99.90
74488;DHT22;63019;51.080;13.642;2023-04-24T00:30:19;12.20;99.90
74488;DHT22;63019;51.080;13.642;2023-04-24T00:31:21;12.20;99.90
74488;DHT22;63019;51.080;13.642;2023-04-24T00:32:23;12.20;99.90
74488;DHT22;63019;51.080;13.642;2023-04-24T00:33:24;12.20;99.90
74488;DHT22;63019;51.080;13.642;2023-04-24T00:34:26;12.20;99.90
74488;DHT22;63019;51.080;13.642;2023-04-24T00:35:28;12.20;99.90
74488;DHT22;63019;51.080;13.642;2023-04-24T00:36:30;12.20;99.90
74488;DHT22;63019;51.080;13.642;2023-04-24T00:37:32;12.20;99.90
74488;DHT22;63019;51.080;13.642;2023-04-24T00:38:34;12.30;99.90
74488;DHT22;63019;51.080;13.642;2023-04-24T00:39:36;12.30;99.90
74488;DHT22;63019;51.080;13.642;2023-04-24T00:40:37;12.20;99.90
74488;DHT22;63019;51.080;13.642;2023-04-24T00:41:39;12.30;99.90
74488;DHT22;63019;51.080;13.642;2023-04-24T00:42:41;12.30;99.90
74488;DHT22;63019;51.080;13.642;2023-04-24T00:43:44;12.20;99.90
74488;DHT22;63019;51.080;13.642;2023-04-24T00:44:47;12.30;99.90
74488;DHT22;63019;51.080;13.642;2023-04-24T00:45:49;12.30;99.90
74488;DHT22;63019;51.080;13.642;2023-04-24T00:46:51;12.30;99.90
74488;DHT22;63019;51.080;13.642;2023-04-24T00:47:56;12.20;99.90
74488;DHT22;63019;51.080;13.642;2023-04-24T00:48:59;12.20;99.90
74488;DHT22;63019;51.080;13.642;2023-04-24T00:50:06;12.20;99.90
74488;DHT22;63019;51.080;13.642;2023-04-24T00:51:08;12.20;99.90
74488;DHT22;63019;51.080;13.642;2023-04-24T00:52:09;12.20;99.90
74488;DHT22;63019;51.080;13.642;2023-04-24T00:53:12;12.20;99.90
74488;DHT22;63019;51.080;13.642;2023-04-24T00:54:14;12.20;99.90
74488;DHT22;63019;51.080;13.642;2023-04-24T00:55:16;12.20;99.90
74488;DHT22;63019;51.080;13.642;2023-04-24T00:56:18;12.20;99.90
74488;DHT22;63019;51.080;13.642;2023-04-24T00:57:21;12.20;99.90
74488;DHT22;63019;51.080;13.642;2023-04-24T00:58:25;12.20;99.90
74488;DHT22;63019;51.080;13.642;2023-04-24T00:59:28;12.30;99.90
74488;DHT22;63019;51.080;13.642;2023-04-24T01:00:30;12.20;99.90
74488;DHT22;63019;51.080;13.642;2023-04-24T01:01:32;12.20;99.90
74488;DHT22;63019;51.080;13.642;2023-04-24T01:02:35;12.20;99.90
74488;DHT22;63019;51.080;13.642;2023-04-24T01:03:37;12.20;99.90
74488;DHT22;63019;51.080;13.642;2023-04-24T01:04:40;12.20;99.90
74488;DHT22;63019;51.080;13.642;2023-04-24T01:05:42;12.20;99.90
74488;DHT22;63019;51.080;13.642;2023-04-24T01:06:44;12.20;99.90
74488;DHT22;63019;51.080;13.642;2023-04-24T01:07:47;12.20;99.90
74488;DHT22;63019;51.080;13.642;2023-04-24T01:08:50;12.20;99.90
74488;DHT22;63019;51.080;13.642;2023-04-24T01:09:52;12.10;99.90
74488;DHT22;63019;51.080;13.642;2023-04-24T01:10:54;12.10;99.90
74488;DHT22;63019;51.080;13.642;2023-04-24T01:11:56;12.10;99.90
74488;DHT22;63019;51.080;13.642;2023-04-24T01:12:58;12.10;99.90
74488;DHT22;63019;51.080;13.642;2023-04-24T01:14:01;12.10;99.90
74488;DHT22;63019;51.080;13.642;2023-04-24T01:15:03;12.10;99.90
74488;DHT22;63019;51.080;13.642;2023-04-24T01:16:05;12.10;99.90
74488;DHT22;63019;51.080;13.642;2023-04-24T01:17:07;12.10;99.90
74488;DHT22;63019;51.080;13.642;2023-04-24T01:18:11;12.10;99.90
74488;DHT22;63019;51.080;13.642;2023-04-24T01:19:13;12.00;99.90
74488;DHT22;63019;51.080;13.642;2023-04-24T01:20:17;12.10;99.90
74488;DHT22;63019;51.080;13.642;2023-04-24T01:21:20;12.10;99.90
74488;DHT22;63019;51.080;13.642;2023-04-24T01:22:22;12.00;99.90
74488;DHT22;63019;51.080;13.642;2023-04-24T01:23:25;12.00;99.90
74488;DHT22;63019;51.080;13.642;2023-04-24T01:24:28;12.00;99.90
74488;DHT22;63019;51.080;13.642;2023-04-24T01:25:30;12.00;99.90
74488;DHT22;63019;51.080;13.642;2023-04-24T01:26:32;11.90;99.90
74488;DHT22;63019;51.080;13.642;2023-04-24T01:27:34;11.90;99.90
74488;DHT22;63019;51.080;13.642;2023-04-24T01:28:36;11.80;99.90
74488;DHT22;63019;51.080;13.642;2023-04-24T01:29:38;11.80;99.90
74488;DHT22;63019;51.080;13.642;2023-04-24T01:30:41;11.80;99.90
74488;DHT22;63019;51.080;13.642;2023-04-24T01:31:43;11.90;99.90
74488;DHT22;63019;51.080;13.642;2023-04-24T01:32:45;11.90;99.90
74488;DHT22;63019;51.080;13.642;2023-04-24T01:33:48;11.90;99.90
74488;DHT22;63019;51.080;13.642;2023-04-24T01:34:50;12.00;99.90
74488;DHT22;63019;51.080;13.642;2023-04-24T01:35:53;12.00;99.90
74488;DHT22;63019;51.080;13.642;2023-04-24T01:36:55;12.00;99.90
74488;DHT22;63019;51.080;13.642;2023-04-24T01:37:58;12.00;99.90
74488;DHT22;63019;51.080;13.642;2023-04-24T01:39:00;12.10;99.90
74488;DHT22;63019;51.080;13.642;2023-04-24T01:40:03;12.10;99.90
74488;DHT22;63019;51.080;13.642;2023-04-24T01:41:05;12.10;99.90
74488;DHT22;63019;51.080;13.642;2023-04-24T01:42:07;12.10;99.90
74488;DHT22;63019;51.080;13.642;2023-04-24T01:43:09;12.10;99.90
74488;DHT22;63019;51.080;13.642;2023-04-24T01:44:11;12.00;99.90
74488;DHT22;63019;51.080;13.642;2023-04-24T01:45:13;12.00;99.90
74488;DHT22;63019;51.080;13.642;2023-04-24T01:46:15;12.00;99.90
74488;DHT22;63019;51.080;13.642;2023-04-24T01:47:17;12.10;99.90
74488;DHT22;63019;51.080;13.642;2023-04-24T01:48:18;12.10;99.90
74488;DHT22;63019;51.080;13.642;2023-04-24T01:49:20;12.10;99.90
74488;DHT22;63019;51.080;13.642;2023-04-24T01:50:22;12.00;99.90
74488;DHT22;63019;51.080;13.642;2023-04-24T01:51:24;12.00;99.90
74488;DHT22;63019;51.080;13.642;2023-04-24T01:52:26;12.00;99.90
74488;DHT22;63019;51.080;13.642;2023-04-24T01:53:28;12.00;99.90
74488;DHT22;63019;51.080;13.642;2023-04-24T01:54:30;12.00;99.90
74488;DHT22;63019;51.080;13.642;2023-04-24T01:55:32;12.00;99.90
74488;DHT22;63019;51.080;13.642;2023-04-24T01:56:35;12.00;99.90
74488;DHT22;63019;51.080;13.642;2023-04-24T01:57:38;12.00;99.90
74488;DHT22;63019;51.080;13.642;2023-04-24T01:58:40;12.00;99.90
74488;DHT22;63019;51.080;13.642;2023-04-24T01:59:42;12.00;99.90
74488;DHT22;63019;51.080;13.642;2023-04-24T02:00:44;12.00;99.90
74488;DHT22;63019;51.080;13.642;2023-04-24T02:01:46;12.00;99.90
74488;DHT22;63019;51.080;13.642;2023-04-24T02:02:48;12.00;99.90
74488;DHT22;63019;51.080;13.642;2023-04-24T02:03:50;12.00;99.90
74488;DHT22;63019;51.080;13.642;2023-04-24T02:04:52;12.00;99.90
74488;DHT22;63019;51.080;13.642;2023-04-24T02:05:53;12.00;99.90
74488;DHT22;63019;51.080;13.642;2023-04-24T02:06:55;12.00;99.90
74488;DHT22;63019;51.080;13.642;2023-04-24T02:07:57;12.00;99.90
74488;DHT22;63019;51.080;13.642;2023-04-24T02:08:59;12.00;99.90
74488;DHT22;63019;51.080;13.642;2023-04-24T02:10:01;12.00;99.90
74488;DHT22;63019;51.080;13.642;2023-04-24T02:11:03;12.00;99.90
74488;DHT22;63019;51.080;13.642;2023-04-24T02:12:04;12.00;99.90
74488;DHT22;63019;51.080;13.642;2023-04-24T02:13:06;12.00;99.90
74488;DHT22;63019;51.080;13.642;2023-04-24T02:14:08;12.10;99.90
74488;DHT22;63019;51.080;13.642;2023-04-24T02:15:10;12.00;99.90
74488;DHT22;63019;51.080;13.642;2023-04-24T02:16:12;12.00;99.90
74488;DHT22;63019;51.080;13.642;2023-04-24T02:17:14;12.10;99.90
74488;DHT22;63019;51.080;13.642;2023-04-24T02:18:17;12.10;99.90
74488;DHT22;63019;51.080;13.642;2023-04-24T02:19:19;12.10;99.90
74488;DHT22;63019;51.080;13.642;2023-04-24T02:20:21;12.10;99.90
74488;DHT22;63019;51.080;13.642;2023-04-24T02:21:23;12.10;99.90
74488;DHT22;63019;51.080;13.642;2023-04-24T02:22:25;12.10;99.90
74488;DHT22;63019;51.080;13.642;2023-04-24T02:23:26;12.10;99.90
74488;DHT22;63019;51.080;13.642;2023-04-24T02:24:28;12.20;99.90
74488;DHT22;63019;51.080;13.642;2023-04-24T02:25:30;12.20;99.90
74488;DHT22;63019;51.080;13.642;2023-04-24T02:26:32;12.20;99.90
74488;DHT22;63019;51.080;13.642;2023-04-24T02:27:33;12.20;99.90
74488;DHT22;63019;51.080;13.642;2023-04-24T02:28:35;12.20;99.90
74488;DHT22;63019;51.080;13.642;2023-04-24T02:29:37;12.30;99.90
74488;DHT22;63019;51.080;13.642;2023-04-24T02:30:39;12.30;99.90
74488;DHT22;63019;51.080;13.642;2023-04-24T02:31:40;12.20;99.90
74488;DHT22;63019;51.080;13.642;2023-04-24T02:32:42;12.30;99.90
74488;DHT22;63019;51.080;13.642;2023-04-24T02:33:44;12.30;99.90
74488;DHT22;63019;51.080;13.642;2023-04-24T02:34:46;12.30;99.90
74488;DHT22;63019;51.080;13.642;2023-04-24T02:35:48;12.40;99.90
74488;DHT22;63019;51.080;13.642;2023-04-24T02:36:50;12.30;99.90
74488;DHT22;63019;51.080;13.642;2023-04-24T02:37:52;12.30;99.90
74488;DHT22;63019;51.080;13.642;2023-04-24T02:38:53;12.30;99.90
74488;DHT22;63019;51.080;13.642;2023-04-24T02:39:55;12.30;99.90
74488;DHT22;63019;51.080;13.642;2023-04-24T02:40:57;12.40;99.90
74488;DHT22;63019;51.080;13.642;2023-04-24T02:41:59;12.40;99.90
74488;DHT22;63019;51.080;13.642;2023-04-24T02:43:01;12.40;99.90
74488;DHT22;63019;51.080;13.642;2023-04-24T02:44:03;12.30;99.90
74488;DHT22;63019;51.080;13.642;2023-04-24T02:45:05;12.40;99.90
74488;DHT22;63019;51.080;13.642;2023-04-24T02:46:07;12.30;99.90
74488;DHT22;63019;51.080;13.642;2023-04-24T02:47:09;12.20;99.90
74488;DHT22;63019;51.080;13.642;2023-04-24T02:48:11;12.20;99.90
74488;DHT22;63019;51.080;13.642;2023-04-24T02:49:12;12.20;99.90
74488;DHT22;63019;51.080;13.642;2023-04-24T02:50:14;12.20;99.90
74488;DHT22;63019;51.080;13.642;2023-04-24T02:51:16;12.20;99.90
74488;DHT22;63019;51.080;13.642;2023-04-24T02:52:18;12.20;99.90
74488;DHT22;63019;51.080;13.642;2023-04-24T02:53:19;12.20;99.90
74488;DHT22;63019;51.080;13.642;2023-04-24T02:54:21;12.20;99.90
74488;DHT22;63019;51.080;13.642;2023-04-24T02:55:23;12.20;99.90
74488;DHT22;63019;51.080;13.642;2023-04-24T02:56:25;12.20;99.90
74488;DHT22;63019;51.080;13.642;2023-04-24T02:57:26;12.20;99.90
74488;DHT22;63019;51.080;13.642;2023-04-24T02:58:28;12.20;99.90
74488;DHT22;63019;51.080;13.642;2023-04-24T02:59:30;12.20;99.90
74488;DHT22;63019;51.080;13.642;2023-04-24T03:00:32;12.30;99.90
74488;DHT22;63019;51.080;13.642;2023-04-24T03:01:34;12.30;99.90
74488;DHT22;63019;51.080;13.642;2023-04-24T03:02:36;12.30;99.90
74488;DHT22;63019;51.080;13.642;2023-04-24T03:03:38;12.20;99.90
74488;DHT22;63019;51.080;13.642;2023-04-24T03:04:41;12.30;99.90
74488;DHT22;63019;51.080;13.642;2023-04-24T03:05:44;12.30;99.90
74488;DHT22;63019;51.080;13.642;2023-04-24T03:06:47;12.30;99.90
74488;DHT22;63019;51.080;13.642;2023-04-24T03:07:48;12.40;99.90
74488;DHT22;63019;51.080;13.642;2023-04-24T03:08:51;12.40;99.90
74488;DHT22;63019;51.080;13.642;2023-04-24T03:09:52;12.40;99.90
74488;DHT22;63019;51.080;13.642;2023-04-24T03:10:54;12.50;99.90
74488;DHT22;63019;51.080;13.642;2023-04-24T03:11:56;12.50;99.90
74488;DHT22;63019;51.080;13.642;2023-04-24T03:12:58;12.50;99.90
74488;DHT22;63019;51.080;13.642;2023-04-24T03:14:00;12.40;99.90
74488;DHT22;63019;51.080;13.642;2023-04-24T03:15:02;12.40;99.90
74488;DHT22;63019;51.080;13.642;2023-04-24T03:16:04;12.50;99.90
74488;DHT22;63019;51.080;13.642;2023-04-24T03:17:07;12.40;99.90
74488;DHT22;63019;51.080;13.642;2023-04-24T03:18:08;12.40;99.90
74488;DHT22;63019;51.080;13.642;2023-04-24T03:19:11;12.40;99.90
74488;DHT22;63019;51.080;13.642;2023-04-24T03:20:12;12.50;99.90
74488;DHT22;63019;51.080;13.642;2023-04-24T03:21:14;12.50;99.90
74488;DHT22;63019;51.080;13.642;2023-04-24T03:22:16;12.50;99.90
74488;DHT22;63019;51.080;13.642;2023-04-24T03:23:18;12.50;99.90
74488;DHT22;63019;51.080;13.642;2023-04-24T03:24:20;12.60;99.90
74488;DHT22;63019;51.080;13.642;2023-04-24T03:25:22;12.60;99.90
74488;DHT22;63019;51.080;13.642;2023-04-24T03:26:24;12.60;99.90
74488;DHT22;63019;51.080;13.642;2023-04-24T03:27:26;12.60;99.90
74488;DHT22;63019;51.080;13.642;2023-04-24T03:28:28;12.60;99.90
74488;DHT22;63019;51.080;13.642;2023-04-24T03:29:30;12.60;99.90
74488;DHT22;63019;51.080;13.642;2023-04-24T03:30:32;12.60;99.90
74488;DHT22;63019;51.080;13.642;2023-04-24T03:31:33;12.60;99.90
74488;DHT22;63019;51.080;13.642;2023-04-24T03:32:35;12.60;99.90
74488;DHT22;63019;51.080;13.642;2023-04-24T03:33:37;12.60;99.90
74488;DHT22;63019;51.080;13.642;2023-04-24T03:34:39;12.60;99.90
74488;DHT22;63019;51.080;13.642;2023-04-24T03:35:41;12.60;99.90
74488;DHT22;63019;51.080;13.642;2023-04-24T03:36:43;12.60;99.90
74488;DHT22;63019;51.080;13.642;2023-04-24T03:37:45;12.60;99.90
74488;DHT22;63019;51.080;13.642;2023-04-24T03:38:46;12.60;99.90
74488;DHT22;63019;51.080;13.642;2023-04-24T03:39:48;12.50;99.90
74488;DHT22;63019;51.080;13.642;2023-04-24T03:40:50;12.50;99.90
74488;DHT22;63019;51.080;13.642;2023-04-24T03:41:52;12.60;99.90
74488;DHT22;63019;51.080;13.642;2023-04-24T03:42:53;12.60;99.90
74488;DHT22;63019;51.080;13.642;2023-04-24T03:43:55;12.60;99.90
74488;DHT22;63019;51.080;13.642;2023-04-24T03:44:57;12.60;99.90
74488;DHT22;63019;51.080;13.642;2023-04-24T03:45:59;12.60;99.90
74488;DHT22;63019;51.080;13.642;2023-04-24T03:47:01;12.60;99.90
74488;DHT22;63019;51.080;13.642;2023-04-24T03:48:03;12.60;99.90
74488;DHT22;63019;51.080;13.642;2023-04-24T03:49:05;12.60;99.90
74488;DHT22;63019;51.080;13.642;2023-04-24T03:50:07;12.50;99.90
74488;DHT22;63019;51.080;13.642;2023-04-24T03:51:08;12.60;99.90
74488;DHT22;63019;51.080;13.642;2023-04-24T03:52:10;12.60;99.90
74488;DHT22;63019;51.080;13.642;2023-04-24T03:53:12;12.60;99.90
74488;DHT22;63019;51.080;13.642;2023-04-24T03:54:14;12.60;99.90
74488;DHT22;63019;51.080;13.642;2023-04-24T03:55:16;12.60;99.90
74488;DHT22;63019;51.080;13.642;2023-04-24T03:56:17;12.60;99.90
74488;DHT22;63019;51.080;13.642;2023-04-24T03:57:19;12.60;99.90
74488;DHT22;63019;51.080;13.642;2023-04-24T03:58:21;12.60;99.90
74488;DHT22;63019;51.080;13.642;2023-04-24T03:59:23;12.60;99.90
74488;DHT22;63019;51.080;13.642;2023-04-24T04:00:25;12.50;99.90
74488;DHT22;63019;51.080;13.642;2023-04-24T04:01:27;12.60;99.90
74488;DHT22;63019;51.080;13.642;2023-04-24T04:02:29;12.50;99.90
74488;DHT22;63019;51.080;13.642;2023-04-24T04:03:31;12.50;99.90
74488;DHT22;63019;51.080;13.642;2023-04-24T04:04:34;12.50;99.90
74488;DHT22;63019;51.080;13.642;2023-04-24T04:05:36;12.60;99.90
74488;DHT22;63019;51.080;13.642;2023-04-24T04:06:37;12.50;99.90
74488;DHT22;63019;51.080;13.642;2023-04-24T04:07:39;12.50;99.90
74488;DHT22;63019;51.080;13.642;2023-04-24T04:08:41;12.50;99.90
74488;DHT22;63019;51.080;13.642;2023-04-24T04:09:43;12.50;99.90
74488;DHT22;63019;51.080;13.642;2023-04-24T04:10:45;12.50;99.90
74488;DHT22;63019;51.080;13.642;2023-04-24T04:11:47;12.50;99.90
74488;DHT22;63019;51.080;13.642;2023-04-24T04:12:48;12.50;99.90
74488;DHT22;63019;51.080;13.642;2023-04-24T04:13:50;12.50;99.90
74488;DHT22;63019;51.080;13.642;2023-04-24T04:14:52;12.50;99.90
74488;DHT22;63019;51.080;13.642;2023-04-24T04:15:54;12.50;99.90
74488;DHT22;63019;51.080;13.642;2023-04-24T04:16:56;12.50;99.90
74488;DHT22;63019;51.080;13.642;2023-04-24T04:17:58;12.50;99.90
74488;DHT22;63019;51.080;13.642;2023-04-24T04:19:00;12.50;99.90
74488;DHT22;63019;51.080;13.642;2023-04-24T04:20:02;12.50;99.90
74488;DHT22;63019;51.080;13.642;2023-04-24T04:21:08;12.50;99.90
74488;DHT22;63019;51.080;13.642;2023-04-24T04:22:10;12.50;99.90
74488;DHT22;63019;51.080;13.642;2023-04-24T04:23:12;12.50;99.90
74488;DHT22;63019;51.080;13.642;2023-04-24T04:24:14;12.50;99.90
74488;DHT22;63019;51.080;13.642;2023-04-24T04:25:15;12.50;99.90
74488;DHT22;63019;51.080;13.642;2023-04-24T04:26:20;12.50;99.90
74488;DHT22;63019;51.080;13.642;2023-04-24T04:27:22;12.50;99.90
74488;DHT22;63019;51.080;13.642;2023-04-24T04:28:24;12.50;99.90
74488;DHT22;63019;51.080;13.642;2023-04-24T04:29:26;12.50;99.90
74488;DHT22;63019;51.080;13.642;2023-04-24T04:30:28;12.50;99.90
74488;DHT22;63019;51.080;13.642;2023-04-24T04:31:31;12.50;99.90
74488;DHT22;63019;51.080;13.642;2023-04-24T04:32:33;12.50;99.90
74488;DHT22;63019;51.080;13.642;2023-04-24T04:33:34;12.50;99.90
74488;DHT22;63019;51.080;13.642;2023-04-24T04:34:37;12.50;99.90
74488;DHT22;63019;51.080;13.642;2023-04-24T04:36:42;12.50;99.90
74488;DHT22;63019;51.080;13.642;2023-04-24T04:37:57;12.60;99.90
74488;DHT22;63019;51.080;13.642;2023-04-24T04:39:00;12.60;99.90
74488;DHT22;63019;51.080;13.642;2023-04-24T04:40:05;12.60;99.90
74488;DHT22;63019;51.080;13.642;2023-04-24T04:41:09;12.60;99.90
74488;DHT22;63019;51.080;13.642;2023-04-24T04:42:11;12.60;99.90
74488;DHT22;63019;51.080;13.642;2023-04-24T04:43:13;12.60;99.90
74488;DHT22;63019;51.080;13.642;2023-04-24T04:44:16;12.60;99.90
74488;DHT22;63019;51.080;13.642;2023-04-24T04:45:18;12.60;99.90
74488;DHT22;63019;51.080;13.642;2023-04-24T04:46:20;12.60;99.90
74488;DHT22;63019;51.080;13.642;2023-04-24T04:47:23;12.60;99.90
74488;DHT22;63019;51.080;13.642;2023-04-24T04:48:25;12.60;99.90
74488;DHT22;63019;51.080;13.642;2023-04-24T04:49:26;12.60;99.90
74488;DHT22;63019;51.080;13.642;2023-04-24T04:50:30;12.60;99.90
74488;DHT22;63019;51.080;13.642;2023-04-24T04:51:32;12.60;99.90
74488;DHT22;63019;51.080;13.642;2023-04-24T04:52:33;12.50;99.90
74488;DHT22;63019;51.080;13.642;2023-04-24T04:53:35;12.50;99.90
74488;DHT22;63019;51.080;13.642;2023-04-24T04:54:37;12.60;99.90
74488;DHT22;63019;51.080;13.642;2023-04-24T04:55:39;12.50;99.90
74488;DHT22;63019;51.080;13.642;2023-04-24T04:56:41;12.50;99.90
74488;DHT22;63019;51.080;13.642;2023-04-24T04:57:42;12.50;99.90
74488;DHT22;63019;51.080;13.642;2023-04-24T04:58:44;12.60;99.90
74488;DHT22;63019;51.080;13.642;2023-04-24T04:59:46;12.60;99.90
74488;DHT22;63019;51.080;13.642;2023-04-24T05:00:48;12.60;99.90
74488;DHT22;63019;51.080;13.642;2023-04-24T05:01:52;12.60;99.90
74488;DHT22;63019;51.080;13.642;2023-04-24T05:02:54;12.60;99.90
74488;DHT22;63019;51.080;13.642;2023-04-24T05:04:06;12.60;99.90
74488;DHT22;63019;51.080;13.642;2023-04-24T05:05:09;12.60;99.90
74488;DHT22;63019;51.080;13.642;2023-04-24T05:06:11;12.60;99.90
74488;DHT22;63019;51.080;13.642;2023-04-24T05:07:12;12.70;99.90
74488;DHT22;63019;51.080;13.642;2023-04-24T05:08:14;12.60;99.90
74488;DHT22;63019;51.080;13.642;2023-04-24T05:09:27;12.70;99.90
74488;DHT22;63019;51.080;13.642;2023-04-24T05:10:30;12.70;99.90
74488;DHT22;63019;51.080;13.642;2023-04-24T05:11:32;12.70;99.90
74488;DHT22;63019;51.080;13.642;2023-04-24T05:12:34;12.70;99.90
74488;DHT22;63019;51.080;13.642;2023-04-24T05:13:36;12.70;99.90
74488;DHT22;63019;51.080;13.642;2023-04-24T05:14:41;12.70;99.90
74488;DHT22;63019;51.080;13.642;2023-04-24T05:15:43;12.70;99.90
74488;DHT22;63019;51.080;13.642;2023-04-24T05:16:45;12.80;99.90
74488;DHT22;63019;51.080;13.642;2023-04-24T05:17:47;12.80;99.90
74488;DHT22;63019;51.080;13.642;2023-04-24T05:18:49;12.80;99.90
74488;DHT22;63019;51.080;13.642;2023-04-24T05:19:51;12.90;99.90
74488;DHT22;63019;51.080;13.642;2023-04-24T05:20:52;12.90;99.90
74488;DHT22;63019;51.080;13.642;2023-04-24T05:21:54;12.90;99.90
74488;DHT22;63019;51.080;13.642;2023-04-24T05:22:56;12.90;99.90
74488;DHT22;63019;51.080;13.642;2023-04-24T05:23:58;12.90;99.90
74488;DHT22;63019;51.080;13.642;2023-04-24T05:25:00;13.00;99.90
74488;DHT22;63019;51.080;13.642;2023-04-24T05:26:01;13.00;99.90
74488;DHT22;63019;51.080;13.642;2023-04-24T05:27:06;13.00;99.90
74488;DHT22;63019;51.080;13.642;2023-04-24T05:28:07;13.00;99.90
74488;DHT22;63019;51.080;13.642;2023-04-24T05:29:09;13.00;99.90
74488;DHT22;63019;51.080;13.642;2023-04-24T05:30:11;13.00;99.90
74488;DHT22;63019;51.080;13.642;2023-04-24T05:31:13;13.10;99.90
74488;DHT22;63019;51.080;13.642;2023-04-24T05:32:15;13.10;99.90
74488;DHT22;63019;51.080;13.642;2023-04-24T05:33:17;13.10;99.90
74488;DHT22;63019;51.080;13.642;2023-04-24T05:34:19;13.10;99.90
74488;DHT22;63019;51.080;13.642;2023-04-24T05:35:20;13.10;99.90
74488;DHT22;63019;51.080;13.642;2023-04-24T05:36:22;13.10;99.90
74488;DHT22;63019;51.080;13.642;2023-04-24T05:37:24;13.20;99.90
74488;DHT22;63019;51.080;13.642;2023-04-24T05:38:26;13.20;99.90
74488;DHT22;63019;51.080;13.642;2023-04-24T05:39:28;13.20;99.90
74488;DHT22;63019;51.080;13.642;2023-04-24T05:40:30;13.20;99.90
74488;DHT22;63019;51.080;13.642;2023-04-24T05:41:32;13.20;99.90
74488;DHT22;63019;51.080;13.642;2023-04-24T05:42:33;13.30;99.90
74488;DHT22;63019;51.080;13.642;2023-04-24T05:43:35;13.30;99.90
74488;DHT22;63019;51.080;13.642;2023-04-24T05:44:37;13.30;99.90
74488;DHT22;63019;51.080;13.642;2023-04-24T05:45:39;13.30;99.90
74488;DHT22;63019;51.080;13.642;2023-04-24T05:46:41;13.30;99.90
74488;DHT22;63019;51.080;13.642;2023-04-24T05:47:43;13.30;99.90
74488;DHT22;63019;51.080;13.642;2023-04-24T05:48:45;13.40;99.90
74488;DHT22;63019;51.080;13.642;2023-04-24T05:49:47;13.40;99.90
74488;DHT22;63019;51.080;13.642;2023-04-24T05:50:49;13.30;99.90
74488;DHT22;63019;51.080;13.642;2023-04-24T05:51:52;13.40;99.90
74488;DHT22;63019;51.080;13.642;2023-04-24T05:52:54;13.40;99.90
74488;DHT22;63019;51.080;13.642;2023-04-24T05:53:55;13.40;99.90
74488;DHT22;63019;51.080;13.642;2023-04-24T05:54:57;13.40;99.90
74488;DHT22;63019;51.080;13.642;2023-04-24T05:55:59;13.40;99.90
74488;DHT22;63019;51.080;13.642;2023-04-24T05:57:01;13.40;99.90
74488;DHT22;63019;51.080;13.642;2023-04-24T05:58:08;13.50;99.90
74488;DHT22;63019;51.080;13.642;2023-04-24T05:59:10;13.50;99.90
74488;DHT22;63019;51.080;13.642;2023-04-24T06:00:12;13.50;99.90
74488;DHT22;63019;51.080;13.642;2023-04-24T06:01:14;13.50;99.90
74488;DHT22;63019;51.080;13.642;2023-04-24T06:02:16;13.50;99.90
74488;DHT22;63019;51.080;13.642;2023-04-24T06:03:19;13.50;99.90
74488;DHT22;63019;51.080;13.642;2023-04-24T06:04:21;13.50;99.90
74488;DHT22;63019;51.080;13.642;2023-04-24T06:05:23;13.50;99.90
74488;DHT22;63019;51.080;13.642;2023-04-24T06:06:25;13.50;99.90
74488;DHT22;63019;51.080;13.642;2023-04-24T06:07:28;13.50;99.90
74488;DHT22;63019;51.080;13.642;2023-04-24T06:08:30;13.50;99.90
74488;DHT22;63019;51.080;13.642;2023-04-24T06:09:32;13.50;99.90
74488;DHT22;63019;51.080;13.642;2023-04-24T06:10:34;13.50;99.90
74488;DHT22;63019;51.080;13.642;2023-04-24T06:11:36;13.60;99.90
74488;DHT22;63019;51.080;13.642;2023-04-24T06:12:37;13.60;99.90
74488;DHT22;63019;51.080;13.642;2023-04-24T06:13:39;13.50;99.90
74488;DHT22;63019;51.080;13.642;2023-04-24T06:14:46;13.60;99.90
74488;DHT22;63019;51.080;13.642;2023-04-24T06:15:48;13.60;99.90
74488;DHT22;63019;51.080;13.642;2023-04-24T06:16:50;13.60;99.90
74488;DHT22;63019;51.080;13.642;2023-04-24T06:17:51;13.60;99.90
74488;DHT22;63019;51.080;13.642;2023-04-24T06:18:53;13.50;99.90
74488;DHT22;63019;51.080;13.642;2023-04-24T06:19:55;13.50;99.90
74488;DHT22;63019;51.080;13.642;2023-04-24T06:20:57;13.50;99.90
74488;DHT22;63019;51.080;13.642;2023-04-24T06:21:59;13.50;99.90
74488;DHT22;63019;51.080;13.642;2023-04-24T06:23:00;13.60;99.90
74488;DHT22;63019;51.080;13.642;2023-04-24T06:24:03;13.60;99.90
74488;DHT22;63019;51.080;13.642;2023-04-24T06:25:06;13.70;99.90
74488;DHT22;63019;51.080;13.642;2023-04-24T06:26:08;13.70;99.90
74488;DHT22;63019;51.080;13.642;2023-04-24T06:27:10;13.70;99.90